Etusivu
METAR-TAF:

METAR-TAF

Lentoasemat :

Vršac, Serbia

Leveyspiiri: 45-09N, Pituuspiiri: 021-19E, korkeus merenpinnasta: 83 m

Tämänhetkinen sää

Tämä raportti tehtiin 38 minuuttia sitten, kello 18.30 UTC
Tuuli 2 kn eri suunnista
Lämpötila 10°C
Kosteus 46%
Ilmanpaine 1025 hPa
Näkyvyys 10 km tai enemmän
ei pilviä alle 1500 m:ssä eikä cumulonimbus-pilviä

METAR: LYVR 081830Z AUTO VRB02KT CAVOK 10/M01 Q1025

Aika: 21:08 (19:08 UTC)

Sääennuste

Tämä raportti tehtiin 2 tuntia ja 8 minuuttia sitten, kello 17.00 UTC
Ennuste voimassa 08. päivästä klo 18 UTC - 09. päivään klo 18 UTC
Tuuli 5 kn koillisesta
Näkyvyys 10 km tai enemmän
ei pilviä alle 1500 m:ssä eikä cumulonimbus-pilviä

TAF: LYVR 081700Z 0818/0918 05005KT CAVOK TX23/0913Z TN03/0904Z

Säähavainnot ja -ennusteet yli 4000 lentoasemalta (METAR- ja TAF-raportit).

Käytössä olevat sääasemat on merkitty karttaan keltaisilla ja punaisilla pisteillä.

Aseta hiiri pisteen päälle nähdäksesi sääaseman nimen.

Klikkaa sitten nähdäksesi säähavainnot ja -ennusteet.

Kartan vaihtaminen: klikkaa mustalla rastilla varustettuja vihreitä pisteitä, niin voit zoomata sisään; viivalla varustettua vihreää pistettä, niin voit zoomata ulos tai vihreitä nuolia, niin pääset viereisille kartoille.


METAR-TAF: